createdAt,value
2022-11-16T00:01:44.283Z,99714.66
2022-11-16T00:04:12.172Z,99710.86
2022-11-16T00:06:39.266Z,99707.88
2022-11-16T00:09:26.981Z,99703.04
2022-11-16T00:11:55.794Z,99702.93
2022-11-16T00:14:23.391Z,99696.30
2022-11-16T00:16:50.347Z,99696.42
2022-11-16T00:19:17.257Z,99691.11
2022-11-16T00:21:44.103Z,99687.77
2022-11-16T00:24:12.920Z,99687.17
2022-11-16T00:26:39.873Z,99683.35
2022-11-16T00:29:06.806Z,99682.36
2022-11-16T00:31:33.590Z,99686.52
2022-11-16T00:34:00.395Z,99688.94
2022-11-16T00:36:27.482Z,99685.69
2022-11-16T00:38:54.342Z,99679.52
2022-11-16T00:41:21.376Z,99674.23
2022-11-16T00:43:48.245Z,99668.73
2022-11-16T00:46:15.152Z,99666.02
2022-11-16T00:48:42.159Z,99661.40
2022-11-16T00:51:09.391Z,99660.49
2022-11-16T00:53:36.520Z,99659.85
2022-11-16T00:56:03.808Z,99658.13
2022-11-16T00:58:33.836Z,99655.34
2022-11-16T01:01:09.139Z,99651.34
2022-11-16T01:03:36.237Z,99647.83
2022-11-16T01:06:08.190Z,99648.33
2022-11-16T01:08:36.533Z,99648.05
2022-11-16T01:11:22.734Z,99646.14
2022-11-16T01:14:08.946Z,99642.95
2022-11-16T01:16:36.639Z,99634.30
2022-11-16T01:19:04.510Z,99629.84
2022-11-16T01:21:32.063Z,99625.30
2022-11-16T01:23:59.807Z,99624.11
2022-11-16T01:26:27.283Z,99623.81
2022-11-16T01:28:54.855Z,99620.38
2022-11-16T01:31:22.305Z,99620.48
2022-11-16T01:33:51.826Z,99620.77
2022-11-16T01:36:25.496Z,99618.17
2022-11-16T01:38:53.892Z,99619.00
2022-11-16T01:41:25.601Z,99617.61
2022-11-16T01:44:01.593Z,99620.77
2022-11-16T01:46:45.371Z,99620.73
2022-11-16T01:49:21.912Z,99618.65
2022-11-16T01:51:53.247Z,99619.42
2022-11-16T01:54:20.808Z,99617.13
2022-11-16T01:56:58.021Z,99615.43
2022-11-16T01:59:35.911Z,99611.24
2022-11-16T02:02:04.412Z,99615.66
2022-11-16T02:04:32.757Z,99620.48
2022-11-16T02:07:54.341Z,99615.03
2022-11-16T02:11:18.962Z,99611.52
2022-11-16T02:14:00.971Z,99604.99
2022-11-16T02:16:39.354Z,99607.61
2022-11-16T02:19:59.575Z,99607.06
2022-11-16T02:23:06.076Z,99606.34
2022-11-16T02:25:45.628Z,99606.53
2022-11-16T02:28:38.860Z,99607.48
2022-11-16T02:31:06.867Z,99600.91
2022-11-16T02:33:38.615Z,99592.30
2022-11-16T02:36:06.773Z,99589.45
2022-11-16T02:38:39.302Z,99587.02
2022-11-16T02:41:12.029Z,99582.83
2022-11-16T02:43:42.065Z,99576.56
2022-11-16T02:46:39.049Z,99575.36
2022-11-16T02:49:10.558Z,99573.41
2022-11-16T02:51:37.971Z,99571.40
2022-11-16T02:54:13.188Z,99573.84
2022-11-16T02:57:16.083Z,99576.46
2022-11-16T02:59:47.603Z,99574.86
2022-11-16T03:02:18.971Z,99572.77
2022-11-16T03:04:48.962Z,99567.43
2022-11-16T03:07:18.005Z,99578.11
2022-11-16T03:09:46.590Z,99579.53
2022-11-16T03:12:21.881Z,99569.46
2022-11-16T03:14:49.993Z,99571.56
2022-11-16T03:17:42.384Z,99571.02
2022-11-16T03:20:32.546Z,99566.98
2022-11-16T03:23:01.783Z,99571.37
2022-11-16T03:25:39.590Z,99573.74
2022-11-16T03:28:39.364Z,99570.05
2022-11-16T03:31:21.819Z,99568.94
2022-11-16T03:33:52.711Z,99561.61
2022-11-16T03:36:21.570Z,99557.30
2022-11-16T03:38:51.001Z,99558.19
2022-11-16T03:41:19.351Z,99558.88
2022-11-16T03:43:46.939Z,99559.38
2022-11-16T03:46:14.738Z,99559.83
2022-11-16T03:48:42.096Z,99559.48
2022-11-16T03:51:14.095Z,99556.64
2022-11-16T03:53:42.661Z,99552.84
2022-11-16T03:56:10.358Z,99550.88
2022-11-16T03:58:38.646Z,99546.70
2022-11-16T04:01:06.336Z,99546.16
2022-11-16T04:03:33.950Z,99543.55
2022-11-16T04:06:19.863Z,99546.65
2022-11-16T04:09:05.849Z,99547.81
2022-11-16T04:11:52.327Z,99545.70
2022-11-16T04:14:39.411Z,99542.77
2022-11-16T04:17:33.245Z,99541.36
2022-11-16T04:20:19.164Z,99543.41
2022-11-16T04:23:14.362Z,99537.17
2022-11-16T04:25:42.085Z,99539.10
2022-11-16T04:37:35.859Z,99533.50
2022-11-16T04:40:05.042Z,99525.50
2022-11-16T04:42:32.578Z,99519.09
2022-11-16T04:45:18.381Z,99516.66
2022-11-16T04:47:51.633Z,99512.66
2022-11-16T04:50:19.692Z,99509.92
2022-11-16T04:52:47.229Z,99513.05
2022-11-16T04:55:15.588Z,99513.42
2022-11-16T04:57:44.125Z,99511.73
2022-11-16T05:00:12.374Z,99514.42
2022-11-16T05:02:40.301Z,99512.44
2022-11-16T05:05:08.073Z,99512.74
2022-11-16T05:07:36.259Z,99514.79
2022-11-16T05:10:11.593Z,99515.02
2022-11-16T05:12:39.146Z,99515.77
2022-11-16T05:15:07.750Z,99507.20
2022-11-16T05:17:35.463Z,99506.63
2022-11-16T05:20:24.875Z,99507.61
2022-11-16T05:22:56.984Z,99510.21
2022-11-16T05:25:26.309Z,99510.83
2022-11-16T05:27:54.256Z,99507.64
2022-11-16T05:30:21.928Z,99506.30
2022-11-16T05:32:49.512Z,99507.56
2022-11-16T05:35:18.559Z,99505.69
2022-11-16T05:37:46.872Z,99505.02
2022-11-16T05:40:14.216Z,99501.70
2022-11-16T05:42:46.879Z,99494.66
2022-11-16T05:45:19.800Z,99489.48
2022-11-16T05:47:48.741Z,99492.10
2022-11-16T05:50:16.640Z,99488.21
2022-11-16T05:52:46.995Z,99485.77
2022-11-16T05:55:14.490Z,99485.06
2022-11-16T05:57:43.522Z,99481.41
2022-11-16T06:00:11.907Z,99480.42
2022-11-16T06:02:47.638Z,99483.58
2022-11-16T06:05:21.204Z,99485.34
2022-11-16T06:07:48.626Z,99483.08
2022-11-16T21:29:17.099Z,99344.73
2022-11-16T21:31:44.216Z,99342.72
2022-11-16T21:34:10.918Z,99342.18
2022-11-16T21:36:37.926Z,99347.33
2022-11-16T21:39:04.751Z,99342.55
2022-11-16T21:41:31.890Z,99350.04
2022-11-16T21:43:58.571Z,99347.06
2022-11-16T21:46:26.329Z,99349.35
2022-11-16T21:48:54.242Z,99349.73
2022-11-16T21:51:22.189Z,99352.45
2022-11-16T21:53:48.878Z,99349.07
2022-11-16T21:56:19.672Z,99341.23
2022-11-16T21:58:46.320Z,99336.21
2022-11-16T22:01:13.423Z,99335.75
2022-11-16T22:03:40.186Z,99336.23
2022-11-16T22:06:26.037Z,99343.25
2022-11-16T22:08:52.820Z,99345.18
2022-11-16T22:11:22.070Z,99343.42
2022-11-16T22:13:49.429Z,99340.23
2022-11-16T22:16:16.767Z,99334.89
2022-11-16T22:18:43.547Z,99336.23
2022-11-16T22:21:10.367Z,99336.12
2022-11-16T22:23:37.728Z,99333.27
2022-11-16T22:26:09.140Z,99330.20
2022-11-16T22:28:36.286Z,99329.06
2022-11-16T22:31:07.131Z,99337.55
2022-11-16T22:33:34.567Z,99338.89
2022-11-16T22:36:01.588Z,99334.81
2022-11-16T22:38:28.236Z,99337.69
2022-11-16T22:40:55.775Z,99339.30
2022-11-16T22:43:27.295Z,99337.02
2022-11-16T22:46:01.150Z,99339.04
2022-11-16T22:48:31.597Z,99341.13
2022-11-16T22:51:28.182Z,99340.65
2022-11-16T22:53:55.913Z,99340.13
2022-11-16T22:56:22.713Z,99339.34
2022-11-16T22:58:49.335Z,99342.21
2022-11-16T23:01:15.983Z,99343.73
2022-11-16T23:03:42.729Z,99344.11
2022-11-16T23:06:09.672Z,99341.99
2022-11-16T23:08:36.453Z,99340.39
2022-11-16T23:11:26.211Z,99341.30
2022-11-16T23:14:12.054Z,99338.83
2022-11-16T23:16:39.072Z,99343.41
2022-11-16T23:19:29.195Z,99339.70
2022-11-16T23:22:14.567Z,99338.63
2022-11-16T23:24:59.990Z,99337.27
2022-11-16T23:27:31.761Z,99340.95
2022-11-16T23:29:59.033Z,99346.11
2022-11-16T23:32:25.897Z,99343.98
2022-11-16T23:34:52.564Z,99347.63
2022-11-16T23:37:19.191Z,99350.63
2022-11-16T23:39:45.838Z,99354.27
2022-11-16T23:42:31.408Z,99352.42
2022-11-16T23:44:58.036Z,99347.89
2022-11-16T23:47:24.768Z,99342.68
2022-11-16T23:49:51.439Z,99341.30
2022-11-16T23:52:18.218Z,99341.80
2022-11-16T23:54:44.949Z,99343.75
2022-11-16T23:57:11.655Z,99344.02
2022-11-16T23:59:38.287Z,99338.86
